sensor_id;sensor_type;location;lat;lon;timestamp;temperature;humidity
21214;DHT22;10764;50.850;2.904;2023-04-25T00:01:58;22.40;44.10
21214;DHT22;10764;50.850;2.904;2023-04-25T00:04:27;22.40;44.10
21214;DHT22;10764;50.850;2.904;2023-04-25T00:06:55;22.40;44.10
21214;DHT22;10764;50.850;2.904;2023-04-25T00:09:22;22.40;44.10
21214;DHT22;10764;50.850;2.904;2023-04-25T00:11:49;22.40;44.70
21214;DHT22;10764;50.850;2.904;2023-04-25T00:14:16;22.40;44.10
21214;DHT22;10764;50.850;2.904;2023-04-25T00:16:43;22.40;44.10
21214;DHT22;10764;50.850;2.904;2023-04-25T00:19:10;22.40;44.10
21214;DHT22;10764;50.850;2.904;2023-04-25T00:21:38;22.40;44.10
21214;DHT22;10764;50.850;2.904;2023-04-25T00:24:07;22.40;44.20
21214;DHT22;10764;50.850;2.904;2023-04-25T00:26:35;22.40;44.20
21214;DHT22;10764;50.850;2.904;2023-04-25T00:29:02;22.40;44.20
21214;DHT22;10764;50.850;2.904;2023-04-25T00:31:30;22.40;44.30
21214;DHT22;10764;50.850;2.904;2023-04-25T00:33:57;22.30;44.30
21214;DHT22;10764;50.850;2.904;2023-04-25T00:36:24;22.30;44.40
21214;DHT22;10764;50.850;2.904;2023-04-25T00:38:53;22.40;44.40
21214;DHT22;10764;50.850;2.904;2023-04-25T00:41:20;22.30;44.30
21214;DHT22;10764;50.850;2.904;2023-04-25T00:43:48;22.30;44.30
21214;DHT22;10764;50.850;2.904;2023-04-25T00:46:15;22.30;44.30
21214;DHT22;10764;50.850;2.904;2023-04-25T00:48:44;22.30;44.20
21214;DHT22;10764;50.850;2.904;2023-04-25T00:51:17;22.30;44.20
21214;DHT22;10764;50.850;2.904;2023-04-25T00:53:46;22.40;45.00
21214;DHT22;10764;50.850;2.904;2023-04-25T00:56:15;22.30;44.30
21214;DHT22;10764;50.850;2.904;2023-04-25T00:58:42;22.30;44.30
21214;DHT22;10764;50.850;2.904;2023-04-25T01:01:10;22.30;44.20
21214;DHT22;10764;50.850;2.904;2023-04-25T01:03:39;22.30;44.20
21214;DHT22;10764;50.850;2.904;2023-04-25T01:06:10;22.30;44.20
21214;DHT22;10764;50.850;2.904;2023-04-25T01:08:38;22.30;44.20
21214;DHT22;10764;50.850;2.904;2023-04-25T01:11:06;22.30;44.10
21214;DHT22;10764;50.850;2.904;2023-04-25T01:13:33;22.30;44.10
21214;DHT22;10764;50.850;2.904;2023-04-25T01:16:02;22.30;44.10
21214;DHT22;10764;50.850;2.904;2023-04-25T01:18:29;22.30;44.10
21214;DHT22;10764;50.850;2.904;2023-04-25T01:21:01;22.40;44.10
21214;DHT22;10764;50.850;2.904;2023-04-25T01:23:29;22.40;44.10
21214;DHT22;10764;50.850;2.904;2023-04-25T01:25:56;22.30;44.10
21214;DHT22;10764;50.850;2.904;2023-04-25T01:28:23;22.40;44.10
21214;DHT22;10764;50.850;2.904;2023-04-25T01:30:51;22.40;44.10
21214;DHT22;10764;50.850;2.904;2023-04-25T01:33:20;22.40;44.00
21214;DHT22;10764;50.850;2.904;2023-04-25T01:35:47;22.30;44.00
21214;DHT22;10764;50.850;2.904;2023-04-25T01:38:14;22.30;44.00
21214;DHT22;10764;50.850;2.904;2023-04-25T01:40:41;22.30;44.00
21214;DHT22;10764;50.850;2.904;2023-04-25T01:43:08;22.30;44.00
21214;DHT22;10764;50.850;2.904;2023-04-25T01:45:38;22.30;43.90
21214;DHT22;10764;50.850;2.904;2023-04-25T01:48:10;22.40;44.00
21214;DHT22;10764;50.850;2.904;2023-04-25T01:50:39;22.30;43.90
21214;DHT22;10764;50.850;2.904;2023-04-25T01:53:07;22.40;43.90
21214;DHT22;10764;50.850;2.904;2023-04-25T01:55:35;22.40;44.70
21214;DHT22;10764;50.850;2.904;2023-04-25T01:58:09;22.30;43.90
21214;DHT22;10764;50.850;2.904;2023-04-25T02:00:53;22.40;43.90
21214;DHT22;10764;50.850;2.904;2023-04-25T02:03:19;22.30;43.80
21214;DHT22;10764;50.850;2.904;2023-04-25T02:05:47;22.30;43.90
21214;DHT22;10764;50.850;2.904;2023-04-25T02:08:15;22.30;43.90
21214;DHT22;10764;50.850;2.904;2023-04-25T02:10:43;22.30;44.10
21214;DHT22;10764;50.850;2.904;2023-04-25T02:13:17;22.30;44.20
21214;DHT22;10764;50.850;2.904;2023-04-25T02:16:06;22.30;44.30
21214;DHT22;10764;50.850;2.904;2023-04-25T02:18:36;22.30;44.40
21214;DHT22;10764;50.850;2.904;2023-04-25T02:21:05;22.30;44.30
21214;DHT22;10764;50.850;2.904;2023-04-25T02:23:32;22.30;44.40
21214;DHT22;10764;50.850;2.904;2023-04-25T02:25:59;22.30;44.40
21214;DHT22;10764;50.850;2.904;2023-04-25T02:28:26;22.30;44.30
21214;DHT22;10764;50.850;2.904;2023-04-25T02:30:55;22.30;44.30
21214;DHT22;10764;50.850;2.904;2023-04-25T02:33:23;22.30;44.20
21214;DHT22;10764;50.850;2.904;2023-04-25T02:35:50;22.30;44.20
21214;DHT22;10764;50.850;2.904;2023-04-25T02:38:18;22.30;44.30
21214;DHT22;10764;50.850;2.904;2023-04-25T02:40:45;22.30;44.30
21214;DHT22;10764;50.850;2.904;2023-04-25T02:43:12;22.30;44.30
21214;DHT22;10764;50.850;2.904;2023-04-25T02:45:39;22.30;44.30
21214;DHT22;10764;50.850;2.904;2023-04-25T02:48:06;22.30;44.20
21214;DHT22;10764;50.850;2.904;2023-04-25T02:50:33;22.30;44.20
21214;DHT22;10764;50.850;2.904;2023-04-25T02:52:59;22.30;44.20
21214;DHT22;10764;50.850;2.904;2023-04-25T02:55:33;22.30;44.20
21214;DHT22;10764;50.850;2.904;2023-04-25T02:58:01;22.30;44.20
21214;DHT22;10764;50.850;2.904;2023-04-25T03:00:46;22.30;44.20
21214;DHT22;10764;50.850;2.904;2023-04-25T03:03:16;22.30;44.20
21214;DHT22;10764;50.850;2.904;2023-04-25T03:05:49;22.30;44.20
21214;DHT22;10764;50.850;2.904;2023-04-25T03:08:21;22.30;44.30
21214;DHT22;10764;50.850;2.904;2023-04-25T03:10:49;22.30;44.20
21214;DHT22;10764;50.850;2.904;2023-04-25T03:13:18;22.30;44.20
21214;DHT22;10764;50.850;2.904;2023-04-25T03:15:45;22.30;44.30
21214;DHT22;10764;50.850;2.904;2023-04-25T03:18:13;22.30;44.20
21214;DHT22;10764;50.850;2.904;2023-04-25T03:20:40;22.30;44.20
21214;DHT22;10764;50.850;2.904;2023-04-25T03:23:08;22.30;44.10
21214;DHT22;10764;50.850;2.904;2023-04-25T03:25:36;22.30;44.10
21214;DHT22;10764;50.850;2.904;2023-04-25T03:28:03;22.30;44.00
21214;DHT22;10764;50.850;2.904;2023-04-25T03:30:31;22.30;44.00
21214;DHT22;10764;50.850;2.904;2023-04-25T03:32:58;22.30;44.00
21214;DHT22;10764;50.850;2.904;2023-04-25T03:35:26;22.30;44.00
21214;DHT22;10764;50.850;2.904;2023-04-25T03:37:53;22.30;43.90
21214;DHT22;10764;50.850;2.904;2023-04-25T03:40:25;22.30;43.90
21214;DHT22;10764;50.850;2.904;2023-04-25T03:43:10;22.30;43.80
21214;DHT22;10764;50.850;2.904;2023-04-25T03:45:41;22.30;43.80
21214;DHT22;10764;50.850;2.904;2023-04-25T03:48:08;22.30;43.70
21214;DHT22;10764;50.850;2.904;2023-04-25T03:50:35;22.30;43.70
21214;DHT22;10764;50.850;2.904;2023-04-25T03:53:02;22.30;43.80
21214;DHT22;10764;50.850;2.904;2023-04-25T03:55:37;22.30;43.70
21214;DHT22;10764;50.850;2.904;2023-04-25T03:58:04;22.30;43.70
21214;DHT22;10764;50.850;2.904;2023-04-25T04:00:31;22.30;43.70
21214;DHT22;10764;50.850;2.904;2023-04-25T04:02:59;22.30;43.70
21214;DHT22;10764;50.850;2.904;2023-04-25T04:05:27;22.30;43.70
21214;DHT22;10764;50.850;2.904;2023-04-25T04:07:55;22.30;44.10
21214;DHT22;10764;50.850;2.904;2023-04-25T04:10:22;22.30;43.60
21214;DHT22;10764;50.850;2.904;2023-04-25T04:12:49;22.30;43.60
21214;DHT22;10764;50.850;2.904;2023-04-25T04:15:16;22.30;43.60
21214;DHT22;10764;50.850;2.904;2023-04-25T04:17:45;22.30;43.70
21214;DHT22;10764;50.850;2.904;2023-04-25T04:20:13;22.30;43.60
21214;DHT22;10764;50.850;2.904;2023-04-25T04:22:40;22.30;43.60
21214;DHT22;10764;50.850;2.904;2023-04-25T04:25:10;22.30;43.60
21214;DHT22;10764;50.850;2.904;2023-04-25T04:28:03;22.30;43.50
21214;DHT22;10764;50.850;2.904;2023-04-25T04:30:53;22.30;43.50
21214;DHT22;10764;50.850;2.904;2023-04-25T04:33:19;22.20;43.50
21214;DHT22;10764;50.850;2.904;2023-04-25T04:35:51;22.20;43.50
21214;DHT22;10764;50.850;2.904;2023-04-25T04:38:19;22.20;43.60
21214;DHT22;10764;50.850;2.904;2023-04-25T04:40:49;22.20;43.70
21214;DHT22;10764;50.850;2.904;2023-04-25T04:43:37;22.20;43.70
21214;DHT22;10764;50.850;2.904;2023-04-25T04:46:22;22.20;43.70
21214;DHT22;10764;50.850;2.904;2023-04-25T04:49:09;22.20;43.70
21214;DHT22;10764;50.850;2.904;2023-04-25T04:51:52;22.20;43.70
21214;DHT22;10764;50.850;2.904;2023-04-25T04:54:46;22.20;43.70
21214;DHT22;10764;50.850;2.904;2023-04-25T04:57:18;22.20;43.80
21214;DHT22;10764;50.850;2.904;2023-04-25T05:00:11;22.20;44.50
21214;DHT22;10764;50.850;2.904;2023-04-25T05:02:44;22.20;44.30
21214;DHT22;10764;50.850;2.904;2023-04-25T05:05:26;22.20;43.80
21214;DHT22;10764;50.850;2.904;2023-04-25T05:08:10;22.10;43.90
21214;DHT22;10764;50.850;2.904;2023-04-25T05:10:50;22.10;43.90
21214;DHT22;10764;50.850;2.904;2023-04-25T05:13:25;22.10;43.90
21214;DHT22;10764;50.850;2.904;2023-04-25T05:16:03;22.10;44.00
21214;DHT22;10764;50.850;2.904;2023-04-25T05:19:02;22.10;44.00
21214;DHT22;10764;50.850;2.904;2023-04-25T05:21:42;22.10;44.00
21214;DHT22;10764;50.850;2.904;2023-04-25T05:24:27;22.10;44.00
21214;DHT22;10764;50.850;2.904;2023-04-25T05:27:10;22.10;43.80
21214;DHT22;10764;50.850;2.904;2023-04-25T05:30:03;22.10;43.70
21214;DHT22;10764;50.850;2.904;2023-04-25T05:32:36;22.10;43.60
21214;DHT22;10764;50.850;2.904;2023-04-25T05:35:04;22.10;43.60
21214;DHT22;10764;50.850;2.904;2023-04-25T05:37:40;22.10;43.60
21214;DHT22;10764;50.850;2.904;2023-04-25T05:40:12;22.10;43.60
21214;DHT22;10764;50.850;2.904;2023-04-25T05:42:51;22.10;43.60
21214;DHT22;10764;50.850;2.904;2023-04-25T05:45:47;22.10;43.50
21214;DHT22;10764;50.850;2.904;2023-04-25T05:48:30;22.10;43.40
21214;DHT22;10764;50.850;2.904;2023-04-25T05:51:08;22.10;43.40
21214;DHT22;10764;50.850;2.904;2023-04-25T05:54:01;22.00;44.00
21214;DHT22;10764;50.850;2.904;2023-04-25T05:56:27;22.10;43.40
21214;DHT22;10764;50.850;2.904;2023-04-25T05:58:55;22.10;43.50
21214;DHT22;10764;50.850;2.904;2023-04-25T06:01:22;22.10;43.60
21214;DHT22;10764;50.850;2.904;2023-04-25T06:03:50;22.00;43.60
21214;DHT22;10764;50.850;2.904;2023-04-25T06:06:19;22.10;44.40
21214;DHT22;10764;50.850;2.904;2023-04-25T06:08:46;22.00;43.70
21214;DHT22;10764;50.850;2.904;2023-04-25T06:11:14;22.10;43.90
21214;DHT22;10764;50.850;2.904;2023-04-25T06:13:41;22.10;43.90
21214;DHT22;10764;50.850;2.904;2023-04-25T06:16:09;22.10;43.90
21214;DHT22;10764;50.850;2.904;2023-04-25T06:18:36;22.10;43.90
21214;DHT22;10764;50.850;2.904;2023-04-25T06:21:03;22.10;43.90
21214;DHT22;10764;50.850;2.904;2023-04-25T06:23:30;22.10;43.90
21214;DHT22;10764;50.850;2.904;2023-04-25T06:26:04;22.10;43.90
21214;DHT22;10764;50.850;2.904;2023-04-25T06:28:32;22.10;43.90
21214;DHT22;10764;50.850;2.904;2023-04-25T06:30:59;22.10;44.30
21214;DHT22;10764;50.850;2.904;2023-04-25T06:33:26;22.10;44.10
21214;DHT22;10764;50.850;2.904;2023-04-25T06:35:54;22.20;44.30
21214;DHT22;10764;50.850;2.904;2023-04-25T06:38:24;22.20;44.30
21214;DHT22;10764;50.850;2.904;2023-04-25T06:40:54;22.20;44.30
21214;DHT22;10764;50.850;2.904;2023-04-25T06:43:21;22.20;44.40
21214;DHT22;10764;50.850;2.904;2023-04-25T06:46:09;22.20;44.40
21214;DHT22;10764;50.850;2.904;2023-04-25T06:48:41;22.30;44.80
21214;DHT22;10764;50.850;2.904;2023-04-25T06:51:08;22.30;45.10
21214;DHT22;10764;50.850;2.904;2023-04-25T06:53:36;22.30;45.30
21214;DHT22;10764;50.850;2.904;2023-04-25T06:56:06;22.30;45.30
21214;DHT22;10764;50.850;2.904;2023-04-25T06:58:56;22.30;45.20
21214;DHT22;10764;50.850;2.904;2023-04-25T07:01:32;22.30;45.00
21214;DHT22;10764;50.850;2.904;2023-04-25T07:04:03;22.40;45.00
21214;DHT22;10764;50.850;2.904;2023-04-25T07:06:32;22.40;45.10
21214;DHT22;10764;50.850;2.904;2023-04-25T07:08:59;22.30;44.90
21214;DHT22;10764;50.850;2.904;2023-04-25T07:11:27;22.30;44.80
21214;DHT22;10764;50.850;2.904;2023-04-25T07:13:57;22.30;44.70
21214;DHT22;10764;50.850;2.904;2023-04-25T07:16:24;22.30;44.50
21214;DHT22;10764;50.850;2.904;2023-04-25T07:18:51;22.30;44.50
21214;DHT22;10764;50.850;2.904;2023-04-25T07:21:18;22.30;44.30
21214;DHT22;10764;50.850;2.904;2023-04-25T07:23:47;22.30;44.30
21214;DHT22;10764;50.850;2.904;2023-04-25T07:26:17;22.30;44.80
21214;DHT22;10764;50.850;2.904;2023-04-25T07:29:05;22.30;44.10
21214;DHT22;10764;50.850;2.904;2023-04-25T07:31:31;22.30;44.00
21214;DHT22;10764;50.850;2.904;2023-04-25T07:33:58;22.30;44.00
21214;DHT22;10764;50.850;2.904;2023-04-25T07:36:28;22.30;44.00
21214;DHT22;10764;50.850;2.904;2023-04-25T07:38:55;22.30;43.90
21214;DHT22;10764;50.850;2.904;2023-04-25T07:41:22;22.30;43.90
21214;DHT22;10764;50.850;2.904;2023-04-25T07:43:49;22.30;43.80
21214;DHT22;10764;50.850;2.904;2023-04-25T07:46:16;22.40;43.90
21214;DHT22;10764;50.850;2.904;2023-04-25T07:48:44;22.30;44.90
21214;DHT22;10764;50.850;2.904;2023-04-25T07:51:11;22.30;43.80
21214;DHT22;10764;50.850;2.904;2023-04-25T07:53:38;22.30;43.80
21214;DHT22;10764;50.850;2.904;2023-04-25T07:56:10;22.30;43.70
21214;DHT22;10764;50.850;2.904;2023-04-25T07:58:39;22.30;43.70
21214;DHT22;10764;50.850;2.904;2023-04-25T08:01:09;22.30;43.50
21214;DHT22;10764;50.850;2.904;2023-04-25T08:03:45;22.30;43.50
21214;DHT22;10764;50.850;2.904;2023-04-25T08:06:19;22.30;43.40
21214;DHT22;10764;50.850;2.904;2023-04-25T08:08:57;22.30;43.30
21214;DHT22;10764;50.850;2.904;2023-04-25T08:11:32;22.30;43.30
21214;DHT22;10764;50.850;2.904;2023-04-25T08:13:59;22.30;43.20
21214;DHT22;10764;50.850;2.904;2023-04-25T08:16:26;22.30;43.20
21214;DHT22;10764;50.850;2.904;2023-04-25T08:18:53;22.30;43.10
21214;DHT22;10764;50.850;2.904;2023-04-25T08:21:20;22.30;42.90
21214;DHT22;10764;50.850;2.904;2023-04-25T08:23:47;23.50;43.50
21214;DHT22;10764;50.850;2.904;2023-04-25T08:26:22;22.40;42.90
21214;DHT22;10764;50.850;2.904;2023-04-25T08:28:50;22.40;42.90
21214;DHT22;10764;50.850;2.904;2023-04-25T08:31:18;22.40;43.00
21214;DHT22;10764;50.850;2.904;2023-04-25T08:33:56;22.40;42.80
21214;DHT22;10764;50.850;2.904;2023-04-25T08:36:37;22.50;42.90
21214;DHT22;10764;50.850;2.904;2023-04-25T08:39:26;22.40;42.90
21214;DHT22;10764;50.850;2.904;2023-04-25T08:42:12;22.40;42.90
21214;DHT22;10764;50.850;2.904;2023-04-25T08:44:40;22.40;42.80
21214;DHT22;10764;50.850;2.904;2023-04-25T08:47:07;22.40;42.70
21214;DHT22;10764;50.850;2.904;2023-04-25T08:49:45;22.40;42.60
21214;DHT22;10764;50.850;2.904;2023-04-25T08:52:17;22.50;42.50
21214;DHT22;10764;50.850;2.904;2023-04-25T08:54:48;22.50;42.40
21214;DHT22;10764;50.850;2.904;2023-04-25T08:57:17;22.50;42.30
21214;DHT22;10764;50.850;2.904;2023-04-25T08:59:46;22.50;42.30
21214;DHT22;10764;50.850;2.904;2023-04-25T09:02:14;22.50;42.10
21214;DHT22;10764;50.850;2.904;2023-04-25T09:04:46;22.60;42.10
21214;DHT22;10764;50.850;2.904;2023-04-25T09:07:13;22.60;42.20
21214;DHT22;10764;50.850;2.904;2023-04-25T09:09:45;22.50;42.10
21214;DHT22;10764;50.850;2.904;2023-04-25T09:12:17;22.50;42.10
21214;DHT22;10764;50.850;2.904;2023-04-25T09:15:10;22.50;42.10
21214;DHT22;10764;50.850;2.904;2023-04-25T09:17:55;22.50;42.10
21214;DHT22;10764;50.850;2.904;2023-04-25T09:20:24;22.50;42.10
21214;DHT22;10764;50.850;2.904;2023-04-25T09:23:01;22.40;42.00
21214;DHT22;10764;50.850;2.904;2023-04-25T09:25:37;22.50;42.10
21214;DHT22;10764;50.850;2.904;2023-04-25T09:28:07;22.50;42.10
21214;DHT22;10764;50.850;2.904;2023-04-25T09:30:36;22.50;42.10
21214;DHT22;10764;50.850;2.904;2023-04-25T09:33:12;22.50;42.10
21214;DHT22;10764;50.850;2.904;2023-04-25T09:35:44;22.50;42.10
21214;DHT22;10764;50.850;2.904;2023-04-25T09:38:27;22.50;42.00
21214;DHT22;10764;50.850;2.904;2023-04-25T09:41:23;22.60;42.10
21214;DHT22;10764;50.850;2.904;2023-04-25T09:43:50;22.50;41.90
21214;DHT22;10764;50.850;2.904;2023-04-25T09:46:18;22.60;42.00
21214;DHT22;10764;50.850;2.904;2023-04-25T09:48:52;22.60;41.80
21214;DHT22;10764;50.850;2.904;2023-04-25T09:51:30;22.60;41.70
21214;DHT22;10764;50.850;2.904;2023-04-25T09:53:59;22.60;41.60
21214;DHT22;10764;50.850;2.904;2023-04-25T09:56:36;22.50;41.60
21214;DHT22;10764;50.850;2.904;2023-04-25T09:59:07;22.50;41.50
21214;DHT22;10764;50.850;2.904;2023-04-25T10:01:39;22.60;41.50
21214;DHT22;10764;50.850;2.904;2023-04-25T10:04:12;22.60;41.40
21214;DHT22;10764;50.850;2.904;2023-04-25T10:06:53;22.50;41.40
21214;DHT22;10764;50.850;2.904;2023-04-25T10:09:25;22.50;41.40
21214;DHT22;10764;50.850;2.904;2023-04-25T10:11:52;22.60;41.50
21214;DHT22;10764;50.850;2.904;2023-04-25T10:14:19;22.50;41.30
21214;DHT22;10764;50.850;2.904;2023-04-25T10:16:47;22.60;41.20
21214;DHT22;10764;50.850;2.904;2023-04-25T10:19:14;22.60;41.80
21214;DHT22;10764;50.850;2.904;2023-04-25T10:21:50;22.70;40.90
21214;DHT22;10764;50.850;2.904;2023-04-25T10:24:20;22.60;40.80
21214;DHT22;10764;50.850;2.904;2023-04-25T10:26:48;22.70;40.80
21214;DHT22;10764;50.850;2.904;2023-04-25T10:29:23;22.70;40.70
21214;DHT22;10764;50.850;2.904;2023-04-25T10:31:51;22.70;40.60
21214;DHT22;10764;50.850;2.904;2023-04-25T10:34:18;22.70;40.60
21214;DHT22;10764;50.850;2.904;2023-04-25T10:36:51;22.70;40.60
21214;DHT22;10764;50.850;2.904;2023-04-25T10:39:25;22.60;40.60
21214;DHT22;10764;50.850;2.904;2023-04-25T10:41:56;22.60;40.60
21214;DHT22;10764;50.850;2.904;2023-04-25T10:44:27;22.50;40.50
21214;DHT22;10764;50.850;2.904;2023-04-25T10:47:00;22.50;41.20
21214;DHT22;10764;50.850;2.904;2023-04-25T10:49:42;22.50;40.50
21214;DHT22;10764;50.850;2.904;2023-04-25T10:52:26;22.60;40.50
21214;DHT22;10764;50.850;2.904;2023-04-25T10:54:58;22.50;40.30
21214;DHT22;10764;50.850;2.904;2023-04-25T10:57:44;22.50;40.30
21214;DHT22;10764;50.850;2.904;2023-04-25T11:00:17;22.60;40.30
21214;DHT22;10764;50.850;2.904;2023-04-25T11:02:51;22.60;40.30
21214;DHT22;10764;50.850;2.904;2023-04-25T11:07:54;22.70;40.40
21214;DHT22;10764;50.850;2.904;2023-04-25T11:10:31;22.70;40.30
21214;DHT22;10764;50.850;2.904;2023-04-25T11:12:59;22.70;40.30
21214;DHT22;10764;50.850;2.904;2023-04-25T11:15:29;22.60;40.20
21214;DHT22;10764;50.850;2.904;2023-04-25T11:17:56;22.50;40.00
21214;DHT22;10764;50.850;2.904;2023-04-25T11:20:25;22.50;40.20
21214;DHT22;10764;50.850;2.904;2023-04-25T11:22:52;22.50;41.10
21214;DHT22;10764;50.850;2.904;2023-04-25T11:25:19;22.50;40.60
21214;DHT22;10764;50.850;2.904;2023-04-25T11:27:53;22.50;40.80
21214;DHT22;10764;50.850;2.904;2023-04-25T11:30:21;22.40;40.90
21214;DHT22;10764;50.850;2.904;2023-04-25T11:32:48;22.40;41.00
21214;DHT22;10764;50.850;2.904;2023-04-25T11:35:16;22.40;41.00
21214;DHT22;10764;50.850;2.904;2023-04-25T11:37:43;22.40;41.00
21214;DHT22;10764;50.850;2.904;2023-04-25T11:40:11;22.40;41.00
21214;DHT22;10764;50.850;2.904;2023-04-25T11:42:47;22.40;41.10
21214;DHT22;10764;50.850;2.904;2023-04-25T11:45:14;22.40;41.00
21214;DHT22;10764;50.850;2.904;2023-04-25T11:47:42;22.40;41.00
21214;DHT22;10764;50.850;2.904;2023-04-25T11:50:09;22.40;41.70
21214;DHT22;10764;50.850;2.904;2023-04-25T11:52:40;22.40;40.90
21214;DHT22;10764;50.850;2.904;2023-04-25T11:55:16;22.40;40.90
21214;DHT22;10764;50.850;2.904;2023-04-25T11:57:45;22.40;40.90
21214;DHT22;10764;50.850;2.904;2023-04-25T12:00:18;22.40;40.90
21214;DHT22;10764;50.850;2.904;2023-04-25T12:02:52;22.40;40.90
21214;DHT22;10764;50.850;2.904;2023-04-25T12:05:21;22.40;40.90
21214;DHT22;10764;50.850;2.904;2023-04-25T12:07:53;22.40;40.90
21214;DHT22;10764;50.850;2.904;2023-04-25T12:10:20;22.40;40.90
21214;DHT22;10764;50.850;2.904;2023-04-25T12:12:48;22.40;40.80
21214;DHT22;10764;50.850;2.904;2023-04-25T12:17:51;22.40;40.70
21214;DHT22;10764;50.850;2.904;2023-04-25T12:20:23;22.40;40.70
21214;DHT22;10764;50.850;2.904;2023-04-25T12:22:51;22.40;40.70
21214;DHT22;10764;50.850;2.904;2023-04-25T12:25:38;22.30;40.60
21214;DHT22;10764;50.850;2.904;2023-04-25T12:28:22;22.40;40.60
21214;DHT22;10764;50.850;2.904;2023-04-25T12:30:55;22.30;40.60
21214;DHT22;10764;50.850;2.904;2023-04-25T12:33:23;22.30;40.60
21214;DHT22;10764;50.850;2.904;2023-04-25T12:35:50;22.30;40.60
21214;DHT22;10764;50.850;2.904;2023-04-25T12:38:31;22.30;40.50
21214;DHT22;10764;50.850;2.904;2023-04-25T12:41:02;22.40;40.50
21214;DHT22;10764;50.850;2.904;2023-04-25T12:43:29;22.30;40.40
21214;DHT22;10764;50.850;2.904;2023-04-25T12:45:56;22.30;40.40
21214;DHT22;10764;50.850;2.904;2023-04-25T12:48:24;22.30;40.50
21214;DHT22;10764;50.850;2.904;2023-04-25T12:50:51;22.90;40.90
21214;DHT22;10764;50.850;2.904;2023-04-25T12:53:23;22.30;41.00
21214;DHT22;10764;50.850;2.904;2023-04-25T12:55:51;22.30;41.40
21214;DHT22;10764;50.850;2.904;2023-04-25T12:58:18;22.30;41.80
21214;DHT22;10764;50.850;2.904;2023-04-25T13:00:46;22.30;42.00
21214;DHT22;10764;50.850;2.904;2023-04-25T13:03:13;22.30;42.20
21214;DHT22;10764;50.850;2.904;2023-04-25T13:05:40;22.40;42.40
21214;DHT22;10764;50.850;2.904;2023-04-25T13:08:07;22.30;42.40
21214;DHT22;10764;50.850;2.904;2023-04-25T13:10:35;22.30;42.50
21214;DHT22;10764;50.850;2.904;2023-04-25T13:13:03;22.40;42.70
21214;DHT22;10764;50.850;2.904;2023-04-25T13:15:30;22.40;42.70
21214;DHT22;10764;50.850;2.904;2023-04-25T13:17:57;22.40;42.70
21214;DHT22;10764;50.850;2.904;2023-04-25T13:20:24;22.40;42.70
21214;DHT22;10764;50.850;2.904;2023-04-25T13:22:51;22.40;42.60
21214;DHT22;10764;50.850;2.904;2023-04-25T13:25:18;22.30;42.40
21214;DHT22;10764;50.850;2.904;2023-04-25T13:27:45;22.40;42.40
21214;DHT22;10764;50.850;2.904;2023-04-25T13:30:13;22.30;42.10
21214;DHT22;10764;50.850;2.904;2023-04-25T13:32:40;22.30;42.10
21214;DHT22;10764;50.850;2.904;2023-04-25T13:35:09;22.40;42.00
21214;DHT22;10764;50.850;2.904;2023-04-25T13:37:37;22.30;41.80
21214;DHT22;10764;50.850;2.904;2023-04-25T13:40:06;22.40;42.50
21214;DHT22;10764;50.850;2.904;2023-04-25T13:42:36;22.30;41.60
21214;DHT22;10764;50.850;2.904;2023-04-25T13:45:04;22.30;41.60
21214;DHT22;10764;50.850;2.904;2023-04-25T13:47:31;22.30;41.50
21214;DHT22;10764;50.850;2.904;2023-04-25T13:49:58;22.30;41.50
21214;DHT22;10764;50.850;2.904;2023-04-25T13:52:25;22.30;41.50
21214;DHT22;10764;50.850;2.904;2023-04-25T13:54:52;22.30;41.40
21214;DHT22;10764;50.850;2.904;2023-04-25T13:57:19;22.30;41.20
21214;DHT22;10764;50.850;2.904;2023-04-25T13:59:46;22.30;41.20
21214;DHT22;10764;50.850;2.904;2023-04-25T14:02:13;22.30;41.10
21214;DHT22;10764;50.850;2.904;2023-04-25T14:04:41;22.30;41.00
21214;DHT22;10764;50.850;2.904;2023-04-25T14:07:08;22.30;41.00
21214;DHT22;10764;50.850;2.904;2023-04-25T14:09:35;22.30;41.00
21214;DHT22;10764;50.850;2.904;2023-04-25T14:12:02;22.30;41.10
21214;DHT22;10764;50.850;2.904;2023-04-25T14:14:29;22.30;41.10
21214;DHT22;10764;50.850;2.904;2023-04-25T14:16:56;22.30;41.20
21214;DHT22;10764;50.850;2.904;2023-04-25T14:19:23;22.30;41.10
21214;DHT22;10764;50.850;2.904;2023-04-25T14:21:51;22.40;41.20
21214;DHT22;10764;50.850;2.904;2023-04-25T14:24:18;22.30;41.20
21214;DHT22;10764;50.850;2.904;2023-04-25T14:26:44;22.30;41.20
21214;DHT22;10764;50.850;2.904;2023-04-25T14:29:12;22.30;41.20
21214;DHT22;10764;50.850;2.904;2023-04-25T14:31:39;22.30;41.10
21214;DHT22;10764;50.850;2.904;2023-04-25T14:34:07;22.30;41.10
21214;DHT22;10764;50.850;2.904;2023-04-25T14:36:35;22.30;41.80
21214;DHT22;10764;50.850;2.904;2023-04-25T14:39:03;22.30;41.00
21214;DHT22;10764;50.850;2.904;2023-04-25T14:41:31;22.30;41.00
21214;DHT22;10764;50.850;2.904;2023-04-25T14:43:58;22.30;41.00
21214;DHT22;10764;50.850;2.904;2023-04-25T14:46:25;22.30;40.90
21214;DHT22;10764;50.850;2.904;2023-04-25T14:48:52;22.30;40.80
21214;DHT22;10764;50.850;2.904;2023-04-25T14:51:20;22.30;40.80
21214;DHT22;10764;50.850;2.904;2023-04-25T14:53:47;22.30;40.70
21214;DHT22;10764;50.850;2.904;2023-04-25T14:56:14;22.30;40.70
21214;DHT22;10764;50.850;2.904;2023-04-25T14:58:41;22.30;40.60
21214;DHT22;10764;50.850;2.904;2023-04-25T15:01:08;22.30;40.60
21214;DHT22;10764;50.850;2.904;2023-04-25T15:03:35;22.30;40.50
21214;DHT22;10764;50.850;2.904;2023-04-25T15:06:02;22.30;40.50
21214;DHT22;10764;50.850;2.904;2023-04-25T15:08:29;22.30;40.50
21214;DHT22;10764;50.850;2.904;2023-04-25T15:10:56;22.30;40.50
21214;DHT22;10764;50.850;2.904;2023-04-25T15:13:23;22.30;40.40
21214;DHT22;10764;50.850;2.904;2023-04-25T15:15:50;22.30;40.40
21214;DHT22;10764;50.850;2.904;2023-04-25T15:18:20;22.30;40.40
21214;DHT22;10764;50.850;2.904;2023-04-25T15:20:51;22.30;40.40
21214;DHT22;10764;50.850;2.904;2023-04-25T15:23:19;22.30;40.30
21214;DHT22;10764;50.850;2.904;2023-04-25T15:25:47;22.30;40.30
21214;DHT22;10764;50.850;2.904;2023-04-25T15:28:14;22.30;40.20
21214;DHT22;10764;50.850;2.904;2023-04-25T15:30:43;22.30;40.20
21214;DHT22;10764;50.850;2.904;2023-04-25T15:33:10;22.30;40.20
21214;DHT22;10764;50.850;2.904;2023-04-25T15:35:37;22.30;40.10
21214;DHT22;10764;50.850;2.904;2023-04-25T15:38:04;22.30;40.10
21214;DHT22;10764;50.850;2.904;2023-04-25T15:40:31;22.30;40.10
21214;DHT22;10764;50.850;2.904;2023-04-25T15:42:58;22.30;40.00
21214;DHT22;10764;50.850;2.904;2023-04-25T15:45:26;22.30;40.00
21214;DHT22;10764;50.850;2.904;2023-04-25T15:47:55;22.30;40.00
21214;DHT22;10764;50.850;2.904;2023-04-25T15:50:23;22.30;39.90
21214;DHT22;10764;50.850;2.904;2023-04-25T15:52:50;22.30;39.90
21214;DHT22;10764;50.850;2.904;2023-04-25T15:55:18;22.30;39.90
21214;DHT22;10764;50.850;2.904;2023-04-25T15:57:48;22.30;39.90